createdAt,value
2022-11-16T00:00:50.196Z,85.40
2022-11-16T00:06:01.845Z,85.49
2022-11-16T00:11:12.729Z,85.58
2022-11-16T00:16:21.503Z,85.61
2022-11-16T00:21:30.125Z,85.58
2022-11-16T00:26:37.814Z,85.63
2022-11-16T00:31:46.194Z,85.51
2022-11-16T00:36:54.492Z,85.61
2022-11-16T00:42:02.125Z,85.71
2022-11-16T00:47:10.720Z,85.79
2022-11-16T00:52:18.496Z,86.13
2022-11-16T00:57:26.449Z,86.57
2022-11-16T01:02:34.599Z,86.70
2022-11-16T01:07:43.744Z,86.58
2022-11-16T01:12:52.890Z,86.82
2022-11-16T01:18:00.554Z,86.98
2022-11-16T01:23:08.789Z,86.79
2022-11-16T01:28:19.206Z,86.77
2022-11-16T01:33:31.743Z,86.62
2022-11-16T01:38:39.611Z,86.62
2022-11-16T01:43:57.118Z,86.45
2022-11-16T01:49:12.242Z,86.52
2022-11-16T01:54:20.917Z,86.38
2022-11-16T01:59:36.572Z,86.28
2022-11-16T02:04:51.356Z,86.35
2022-11-16T02:10:18.001Z,86.19
2022-11-16T02:15:31.128Z,86.16
2022-11-16T02:20:56.116Z,86.23
2022-11-16T02:26:26.389Z,86.19
2022-11-16T02:31:39.003Z,86.28
2022-11-16T02:36:48.531Z,86.13
2022-11-16T02:41:58.423Z,86.08
2022-11-16T02:47:10.528Z,86.09
2022-11-16T02:52:19.125Z,85.89
2022-11-16T02:57:45.221Z,85.99
2022-11-16T03:03:08.430Z,86.01
2022-11-16T03:08:23.290Z,85.98
2022-11-16T03:13:35.563Z,85.96
2022-11-16T03:18:44.871Z,85.95
2022-11-16T03:23:53.197Z,86.03
2022-11-16T03:29:08.775Z,86.12
2022-11-16T03:34:20.980Z,86.00
2022-11-16T03:39:33.045Z,86.04
2022-11-16T03:44:43.788Z,85.90
2022-11-16T03:49:50.888Z,85.90
2022-11-16T03:54:58.964Z,85.84
2022-11-16T04:00:10.312Z,85.77
2022-11-16T04:05:42.385Z,85.96
2022-11-16T04:11:12.257Z,85.84
2022-11-16T04:16:36.881Z,85.89
2022-11-16T04:22:08.506Z,85.93
2022-11-16T04:27:36.086Z,85.95
2022-11-16T04:33:01.499Z,86.06
2022-11-16T04:38:08.640Z,86.11
2022-11-16T04:43:15.979Z,86.08
2022-11-16T04:48:23.832Z,86.25
2022-11-16T04:53:33.290Z,86.07
2022-11-16T04:59:01.584Z,86.20
2022-11-16T05:04:09.750Z,86.09
2022-11-16T05:09:17.855Z,86.33
2022-11-16T05:14:25.210Z,86.40
2022-11-16T05:19:51.552Z,86.39
2022-11-16T05:24:58.896Z,86.31
2022-11-16T05:30:07.822Z,86.54
2022-11-16T05:35:15.135Z,86.44
2022-11-16T05:40:23.102Z,86.49
2022-11-16T05:45:35.601Z,86.38
2022-11-16T05:50:43.343Z,86.48
2022-11-16T05:55:56.700Z,86.45
2022-11-16T06:01:04.135Z,86.39
2022-11-16T06:06:12.740Z,86.48
2022-11-16T06:11:19.981Z,86.60
2022-11-16T06:16:27.280Z,86.59
2022-11-16T06:21:34.911Z,86.45
2022-11-16T06:26:43.463Z,86.66
2022-11-16T06:31:50.536Z,86.62
2022-11-16T06:36:57.786Z,86.56
2022-11-16T06:42:05.302Z,86.51
2022-11-16T06:47:13.038Z,86.57
2022-11-16T06:52:20.199Z,86.56
2022-11-16T06:57:27.555Z,86.51
2022-11-16T07:02:34.707Z,86.58
2022-11-16T07:07:42.302Z,86.46
2022-11-16T07:12:49.415Z,86.63
2022-11-16T07:18:03.849Z,86.58
2022-11-16T07:23:14.171Z,86.55
2022-11-16T07:28:24.697Z,86.43
2022-11-16T07:33:32.081Z,86.51
2022-11-16T07:39:04.700Z,86.49
2022-11-16T07:44:12.355Z,86.46
2022-11-16T07:49:21.925Z,86.69
2022-11-16T07:54:31.878Z,86.47
2022-11-16T07:59:38.960Z,86.63
2022-11-16T08:04:47.228Z,86.46
2022-11-16T08:09:54.572Z,86.48
2022-11-16T08:15:02.295Z,86.60
2022-11-16T08:20:11.822Z,86.51
2022-11-16T08:25:19.843Z,86.53
2022-11-16T08:30:27.364Z,86.61
2022-11-16T08:35:36.367Z,86.56
2022-11-16T08:40:43.475Z,86.57
2022-11-16T08:45:51.546Z,86.49
2022-11-16T08:51:21.116Z,86.35
2022-11-16T08:56:33.790Z,86.38
2022-11-16T09:01:42.421Z,86.46
2022-11-16T09:06:49.357Z,86.23
2022-11-16T09:11:57.202Z,86.16
2022-11-16T09:17:04.634Z,86.23
2022-11-16T09:22:11.743Z,86.27
2022-11-16T09:27:22.045Z,86.13
2022-11-16T09:32:29.020Z,86.17
2022-11-16T09:37:36.040Z,86.03
2022-11-16T09:42:58.540Z,86.17
2022-11-16T09:48:12.249Z,86.25
2022-11-16T09:53:31.693Z,86.22
2022-11-16T09:58:45.211Z,86.24
2022-11-16T10:03:56.740Z,86.22
2022-11-16T10:09:04.098Z,86.25
2022-11-16T10:14:25.443Z,86.34
2022-11-16T10:19:40.369Z,86.23
2022-11-16T10:24:57.981Z,86.27
2022-11-16T10:30:14.346Z,86.18
2022-11-16T10:35:28.646Z,86.21
2022-11-16T10:40:40.090Z,86.10
2022-11-16T10:45:52.938Z,86.11
2022-11-16T10:51:00.188Z,85.95
2022-11-16T10:56:18.849Z,86.08
2022-11-16T11:01:37.894Z,86.00
2022-11-16T11:06:45.770Z,85.84
2022-11-16T11:12:20.771Z,85.80
2022-11-16T11:17:28.608Z,85.77
2022-11-16T11:22:43.144Z,85.71
2022-11-16T11:27:50.975Z,85.70
2022-11-16T11:32:59.150Z,85.64
2022-11-16T11:38:08.444Z,85.66
2022-11-16T11:43:25.284Z,85.61
2022-11-16T11:48:47.868Z,85.52
2022-11-16T11:53:58.733Z,85.49
2022-11-16T11:59:06.203Z,85.56
2022-11-16T12:05:04.676Z,85.56
2022-11-16T12:10:22.503Z,85.42
2022-11-16T12:15:55.578Z,85.28
2022-11-16T12:21:12.798Z,85.06
2022-11-16T12:26:29.494Z,85.21
2022-11-16T12:31:52.400Z,85.19
2022-11-16T12:37:05.346Z,85.11
2022-11-16T12:42:24.610Z,85.16
2022-11-16T12:47:39.871Z,85.17
2022-11-16T12:53:10.599Z,85.15
2022-11-16T12:58:28.530Z,85.24
2022-11-16T13:03:43.749Z,85.36
2022-11-16T13:09:04.740Z,85.43
2022-11-16T13:14:18.796Z,85.45
2022-11-16T13:19:26.455Z,85.66
2022-11-16T13:24:51.014Z,85.78
2022-11-16T13:30:02.923Z,85.72
2022-11-16T13:35:14.022Z,85.67
2022-11-16T13:40:27.170Z,85.88
2022-11-16T13:45:38.999Z,85.90
2022-11-16T13:50:51.721Z,85.84
2022-11-16T13:56:01.333Z,85.82
2022-11-16T14:01:11.005Z,85.96
2022-11-16T14:06:53.038Z,85.96
2022-11-16T14:12:19.866Z,86.04
2022-11-16T14:17:53.816Z,86.04
2022-11-16T14:23:12.985Z,86.02
2022-11-16T14:28:44.328Z,86.08
2022-11-16T14:33:54.431Z,86.11
2022-11-16T14:39:41.183Z,86.16
2022-11-16T14:44:49.218Z,86.14
2022-11-16T14:49:57.443Z,86.15
2022-11-16T14:55:10.860Z,86.20
2022-11-16T15:00:25.842Z,86.30
2022-11-16T15:05:37.678Z,86.38
2022-11-16T15:10:52.356Z,86.39
2022-11-16T15:16:16.871Z,86.42
2022-11-16T15:21:25.688Z,86.51
2022-11-16T15:26:32.619Z,86.61
2022-11-16T15:31:42.745Z,86.58
2022-11-16T15:36:50.307Z,86.52
2022-11-16T15:42:03.258Z,86.62
2022-11-16T15:47:13.397Z,86.58
2022-11-16T15:52:50.423Z,86.56
2022-11-16T15:58:15.015Z,86.72
2022-11-16T16:03:25.550Z,86.63
2022-11-16T16:08:37.938Z,86.67
2022-11-16T16:13:57.631Z,86.83
2022-11-16T16:19:09.932Z,86.91
2022-11-16T16:24:45.134Z,86.98
2022-11-16T16:29:54.051Z,86.76
2022-11-16T16:35:02.681Z,86.77
2022-11-16T16:40:11.814Z,86.77
2022-11-16T16:45:22.462Z,86.80
2022-11-16T16:50:29.328Z,86.87
2022-11-16T16:55:37.706Z,86.82
2022-11-16T17:00:44.873Z,86.72
2022-11-16T17:05:53.726Z,86.65
2022-11-16T17:11:00.688Z,86.82
2022-11-16T17:16:09.042Z,86.83
2022-11-16T17:21:15.986Z,86.91
2022-11-16T17:26:22.994Z,86.96
2022-11-16T17:31:30.109Z,86.90
2022-11-16T17:36:37.328Z,87.02
2022-11-16T17:41:44.393Z,86.99
2022-11-16T17:46:51.579Z,87.04
2022-11-16T17:51:58.595Z,86.85
2022-11-16T17:57:05.589Z,86.90
2022-11-16T18:02:14.315Z,87.03
2022-11-16T18:07:21.658Z,87.08
2022-11-16T18:12:29.240Z,87.07
2022-11-16T18:17:36.532Z,87.08
2022-11-16T18:22:44.892Z,86.99
2022-11-16T18:27:55.151Z,86.95
2022-11-16T18:33:02.235Z,87.00
2022-11-16T18:38:13.108Z,86.96
2022-11-16T18:43:20.061Z,86.98
2022-11-16T18:48:27.594Z,86.86
2022-11-16T18:53:35.322Z,87.08
2022-11-16T18:58:50.398Z,87.02
2022-11-16T19:03:59.255Z,87.13
2022-11-16T19:09:09.713Z,87.08
2022-11-16T19:14:16.982Z,87.06
2022-11-16T19:19:24.507Z,87.09
2022-11-16T19:24:31.891Z,87.13
2022-11-16T19:29:39.011Z,86.99
2022-11-16T19:34:46.202Z,87.11
2022-11-16T19:39:53.104Z,87.16
2022-11-16T19:45:00.416Z,86.95
2022-11-16T19:50:10.136Z,87.11
2022-11-16T19:55:17.507Z,87.12
2022-11-16T20:00:25.042Z,87.15
2022-11-16T20:05:33.402Z,87.03
2022-11-16T20:10:40.451Z,86.98
2022-11-16T20:15:50.185Z,87.02
2022-11-16T20:21:00.896Z,87.03
2022-11-16T20:26:09.997Z,87.11
2022-11-16T20:31:21.307Z,87.17
2022-11-16T20:36:30.064Z,87.19
2022-11-16T20:41:37.443Z,87.30
2022-11-16T20:46:45.354Z,87.22
2022-11-16T20:51:52.620Z,87.22
2022-11-16T20:57:00.090Z,87.25
2022-11-16T21:02:07.234Z,87.27
2022-11-16T21:07:14.636Z,87.38
2022-11-16T21:12:50.599Z,87.24
2022-11-16T21:17:57.725Z,87.24
2022-11-16T21:23:05.319Z,87.29
2022-11-16T21:28:12.335Z,87.34
2022-11-16T21:33:19.404Z,87.39
2022-11-16T21:38:27.410Z,87.32
2022-11-16T21:43:36.594Z,87.32
2022-11-16T21:48:44.551Z,87.29
2022-11-16T21:53:51.866Z,87.45
2022-11-16T21:58:59.026Z,87.34
2022-11-16T22:04:23.640Z,87.43
2022-11-16T22:09:30.821Z,87.53
2022-11-16T22:14:38.296Z,87.50
2022-11-16T22:19:45.870Z,87.41
2022-11-16T22:24:54.113Z,87.48
2022-11-16T22:30:02.018Z,87.50
2022-11-16T22:35:10.499Z,87.28
2022-11-16T22:40:18.616Z,87.40
2022-11-16T22:45:26.271Z,87.30
2022-11-16T22:50:34.232Z,87.44
2022-11-16T22:55:42.085Z,87.34
2022-11-16T23:00:49.902Z,87.36
2022-11-16T23:05:57.652Z,87.30
2022-11-16T23:11:25.344Z,87.46
2022-11-16T23:16:33.252Z,87.25
2022-11-16T23:21:58.106Z,87.39
2022-11-16T23:27:23.799Z,87.42
2022-11-16T23:32:31.782Z,87.39
2022-11-16T23:37:52.754Z,87.35
2022-11-16T23:43:18.020Z,87.44
2022-11-16T23:48:25.657Z,87.46
2022-11-16T23:53:33.770Z,87.34
2022-11-16T23:58:41.633Z,87.45
